Atlantic Beach, FL

8:13 AM EDT on August 31, 2015 (GMT -0400)
Reed Island | | Change Station
CLOSE
Current Station
Personal Weather Station
Location: Jacksonville, FL
Elevation: 10 ft
Nearby Weather Stations

Elev 10 ft 30.39 °N, 81.52 °W | Updated 7 seconds ago

Overcast
Overcast
77.0 °F
Feels Like 78 °F
N
0.0
Wind Variable Wind from SW
Gusts 0.0 mph

Today
High -- | Low -- °F
--% Chance of Precip.
Yesterday
High -- | Low -- °F
Precip. -- in
7:02 AM 7:50 PM
Waning Gibbous, 95% visible
Pressure 30.03 in
Visibility 10.0 miles
Clouds Few 900 ft
Overcast 2400 ft
Heat Index 78 °F
Dew Point 75 °F
Humidity 93%
Rainfall 0.00 in
Snow Depth Not available.
UV 0 out of 12
Pollen 3.00 out of 12
Air Quality Not available.
Flu Activity Not available.
METAR KCRG 311153Z 26003KT 10SM FEW009 OVC024 25/24 A3003 RMK AO2 SLP168 70015 T02500239 10250 20233 52016
Pressure 30.03 in
Visibility 10.0 miles
Clouds Few 900 ft
Overcast 2400 ft
Heat Index 78 °F
Dew Point 75 °F
Humidity 93%
Rainfall 0.00 in
Snow Depth Not available.
UV 0 out of 12
Pollen 3.00 out of 12
Air Quality Not available.
Flu Activity Not available.
METAR KCRG 311153Z 26003KT 10SM FEW009 OVC024 25/24 A3003 RMK AO2 SLP168 70015 T02500239 10250 20233 52016

10-Day Weather Forecast

×

Almanac

Astronomy

Aug. 31, 2015 Rise Set
Actual Time
Civil Twilight
Nautical Twilight
Astronomical Twilight
Moon
Length of Visible Light
Length of Day
Tomorrow will be .
, % of the Moon is Illuminated

Today's Extremes

State Highs State Lows

Community

WunderPhotos

Upload Photos

1,851,222 photos uploaded!

WunderBlogs® & News

Nearby

Air Quality

  Air Quality AQ Index Pollutant
Not available.

Snow Depth

Station Depth Elevation

Earthquake Activity

City Distance Mag. Time & Date
Minimum magnitude displayed is 2.5.

Coastal Water Temperatures

Place Temperature

Stations

Nearby Weather Stations

Station Location Temp. Windchill Dew Point Humidity Wind Precip. Elev Updated Type